Time;durP1;ratioP1;P1;durP2;ratioP2;P2;SDS_P1;SDS_P2;PMS_P1;PMS_P2;Temp;Humidity;BMP_temperature;BMP_pressure;BME280_temperature;BME280_humidity;BME280_pressure;Samples;Min_cycle;Max_cycle;Signal;HPM_P1;HPM_P2
2024/01/16 00:00:08;;;;;;;10.20;2.97;;;3.50;99.90;;;;;;5034251;28;20025;-72
2024/01/16 00:02:34;;;;;;;13.15;3.90;;;3.40;99.90;;;;;;5034386;28;20033;-72
2024/01/16 00:04:59;;;;;;;11.52;2.97;;;3.40;99.90;;;;;;5034262;28;20030;-72
2024/01/16 00:07:25;;;;;;;13.77;4.70;;;3.30;99.90;;;;;;5034487;28;20037;-72
2024/01/16 00:09:52;;;;;;;17.48;3.83;;;3.30;99.90;;;;;;5033873;28;20099;-72
2024/01/16 00:12:18;;;;;;;13.73;3.30;;;3.40;99.90;;;;;;5034082;28;20068;-72
2024/01/16 00:14:44;;;;;;;16.77;4.70;;;3.40;99.90;;;;;;5034147;28;20065;-72
2024/01/16 00:17:09;;;;;;;12.40;2.83;;;3.40;99.90;;;;;;5034297;28;20033;-72
2024/01/16 00:19:35;;;;;;;11.65;2.88;;;3.40;99.90;;;;;;5033947;28;20033;-72
2024/01/16 00:22:02;;;;;;;11.95;2.50;;;3.40;99.90;;;;;;5033883;28;20501;-72
2024/01/16 00:24:28;;;;;;;9.50;2.00;;;3.50;99.90;;;;;;5033566;28;20021;-72
2024/01/16 00:26:54;;;;;;;11.05;2.33;;;3.50;99.90;;;;;;5033669;28;20362;-71
2024/01/16 00:29:20;;;;;;;11.82;1.98;;;3.50;99.90;;;;;;5033687;28;20026;-71
2024/01/16 00:31:45;;;;;;;12.70;2.17;;;3.60;99.90;;;;;;5033584;28;20033;-72
2024/01/16 00:34:11;;;;;;;11.77;1.92;;;3.60;99.90;;;;;;5033606;28;20025;-73
2024/01/16 00:36:37;;;;;;;10.18;2.13;;;3.70;99.90;;;;;;5033626;28;20026;-72
2024/01/16 00:39:03;;;;;;;11.00;2.17;;;3.70;99.90;;;;;;5033363;28;20026;-71
2024/01/16 00:41:28;;;;;;;11.40;1.85;;;3.80;99.90;;;;;;5033557;28;20057;-72
2024/01/16 00:43:54;;;;;;;8.63;1.80;;;3.90;99.90;;;;;;5033607;28;20490;-72
2024/01/16 00:46:20;;;;;;;11.57;2.08;;;3.90;99.90;;;;;;5033764;28;20358;-72
2024/01/16 00:48:46;;;;;;;8.70;1.85;;;4.00;99.90;;;;;;5033475;28;20064;-72
2024/01/16 00:51:11;;;;;;;13.35;3.45;;;4.00;99.90;;;;;;5033188;28;20116;-72
2024/01/16 00:53:43;;;;;;;11.30;2.90;;;4.00;99.90;;;;;;5033083;28;20038;-72
2024/01/16 00:56:10;;;;;;;16.13;4.18;;;3.90;99.90;;;;;;5033398;28;20033;-72
2024/01/16 00:58:36;;;;;;;18.02;4.25;;;3.80;99.90;;;;;;5033270;28;20021;-72
2024/01/16 01:01:01;;;;;;;14.60;3.90;;;3.70;99.90;;;;;;5032980;28;20380;-73
2024/01/16 01:03:27;;;;;;;11.25;3.70;;;3.70;99.90;;;;;;5033348;28;20080;-72
2024/01/16 01:05:52;;;;;;;12.18;3.00;;;3.60;99.90;;;;;;5032849;28;20418;-73
2024/01/16 01:08:19;;;;;;;10.30;3.28;;;3.50;99.90;;;;;;5032854;28;20486;-72
2024/01/16 01:10:44;;;;;;;8.52;3.20;;;3.40;99.90;;;;;;5032570;28;20056;-72
2024/01/16 01:13:11;;;;;;;8.80;3.20;;;3.40;99.90;;;;;;5032812;28;20477;-72
2024/01/16 01:15:36;;;;;;;9.55;3.75;;;3.30;99.90;;;;;;5033078;28;20113;-73
2024/01/16 01:18:02;;;;;;;10.93;3.75;;;3.30;99.90;;;;;;5032584;28;20091;-73
2024/01/16 01:20:27;;;;;;;10.02;3.70;;;3.20;99.90;;;;;;5032844;28;20021;-73
2024/01/16 01:22:53;;;;;;;11.52;4.88;;;3.20;99.90;;;;;;5032894;28;20038;-73
2024/01/16 01:25:18;;;;;;;10.57;4.57;;;3.10;99.90;;;;;;5032942;28;20047;-73
2024/01/16 01:27:44;;;;;;;14.35;5.22;;;3.00;99.90;;;;;;5032729;28;20104;-73
2024/01/16 01:30:10;;;;;;;16.58;4.40;;;3.00;99.90;;;;;;5032927;28;20036;-72
2024/01/16 01:32:36;;;;;;;11.70;4.40;;;3.00;99.90;;;;;;5032798;28;20099;-72
2024/01/16 01:35:02;;;;;;;11.30;4.55;;;3.00;99.90;;;;;;5032908;28;20038;-71
2024/01/16 01:37:28;;;;;;;10.95;4.95;;;2.90;99.90;;;;;;5032218;28;20091;-72
2024/01/16 01:39:53;;;;;;;12.80;4.80;;;3.00;99.90;;;;;;5032310;28;20116;-71
2024/01/16 01:42:19;;;;;;;13.05;5.72;;;3.00;99.90;;;;;;5032530;28;20036;-73
2024/01/16 01:44:45;;;;;;;14.80;5.20;;;3.00;99.90;;;;;;5032319;28;20038;-71
2024/01/16 01:47:10;;;;;;;14.07;4.78;;;2.90;99.90;;;;;;5032410;28;20147;-72
2024/01/16 01:49:36;;;;;;;13.88;5.32;;;3.00;99.90;;;;;;5032623;28;20072;-73
2024/01/16 01:52:03;;;;;;;21.48;5.72;;;3.10;99.90;;;;;;5032163;28;20037;-71
2024/01/16 01:54:30;;;;;;;10.55;3.90;;;3.10;99.90;;;;;;5032643;28;20112;-72
2024/01/16 01:56:56;;;;;;;9.45;3.90;;;3.20;99.90;;;;;;5035677;28;20044;-71
2024/01/16 01:59:23;;;;;;;10.65;3.88;;;3.30;99.90;;;;;;5036694;28;20029;-72
2024/01/16 02:01:52;;;;;;;11.57;3.58;;;3.40;99.90;;;;;;5036509;28;20033;-72
2024/01/16 02:04:19;;;;;;;15.93;4.13;;;3.40;99.90;;;;;;5036454;28;20079;-72
2024/01/16 02:06:45;;;;;;;13.43;3.65;;;3.40;99.90;;;;;;5036108;28;20043;-72
2024/01/16 02:09:13;;;;;;;18.20;4.32;;;3.40;99.90;;;;;;5034715;28;20045;-72
2024/01/16 02:11:39;;;;;;;17.88;4.60;;;3.40;99.90;;;;;;5036390;28;20031;-71
2024/01/16 02:14:05;;;;;;;12.43;4.50;;;3.40;99.90;;;;;;5034948;28;20029;-71
2024/01/16 02:16:38;;;;;;;11.35;3.70;;;3.40;99.90;;;;;;5036441;28;20041;-72
2024/01/16 02:19:04;;;;;;;11.48;4.22;;;3.20;99.90;;;;;;5035643;28;20026;-72
2024/01/16 02:21:38;;;;;;;9.05;4.50;;;3.20;99.90;;;;;;5035836;28;20083;-72
2024/01/16 02:24:06;;;;;;;8.80;4.32;;;3.00;99.90;;;;;;5036167;28;20064;-72
2024/01/16 02:26:32;;;;;;;9.05;4.70;;;2.90;99.90;;;;;;5035866;28;20040;-72
2024/01/16 02:29:00;;;;;;;9.15;5.30;;;2.90;99.90;;;;;;5036089;28;20027;-72
2024/01/16 02:31:25;;;;;;;12.48;5.20;;;2.80;99.90;;;;;;5035764;28;20065;-72
2024/01/16 02:33:51;;;;;;;11.27;5.43;;;2.80;99.90;;;;;;5035816;28;20073;-70
2024/01/16 02:36:16;;;;;;;16.88;6.35;;;2.80;99.90;;;;;;5035899;28;20033;-72
2024/01/16 02:38:42;;;;;;;13.05;5.43;;;2.80;99.90;;;;;;5035596;28;20037;-73
2024/01/16 02:41:07;;;;;;;12.70;6.35;;;2.80;99.90;;;;;;5035724;28;20029;-72
2024/01/16 02:43:33;;;;;;;13.30;5.93;;;2.70;99.90;;;;;;5035553;28;20381;-72
2024/01/16 02:45:59;;;;;;;10.30;6.10;;;2.70;99.90;;;;;;5035943;28;20355;-71
2024/01/16 02:48:24;;;;;;;54.10;31.55;;;2.70;99.90;;;;;;5035133;28;20038;-72
2024/01/16 02:50:50;;;;;;;16.75;7.93;;;2.70;99.90;;;;;;5035543;28;20033;-71
2024/01/16 02:53:15;;;;;;;19.33;6.82;;;2.70;99.90;;;;;;5035511;28;20071;-72
2024/01/16 02:55:41;;;;;;;16.48;7.03;;;2.80;99.90;;;;;;5035525;28;20033;-71
2024/01/16 02:58:06;;;;;;;17.63;6.78;;;2.70;99.90;;;;;;5034020;28;20036;-71
2024/01/16 03:00:32;;;;;;;14.43;6.70;;;2.70;99.90;;;;;;5035070;28;20432;-71
2024/01/16 03:02:58;;;;;;;18.77;7.00;;;2.80;99.90;;;;;;5034916;28;20034;-71
2024/01/16 03:05:24;;;;;;;15.95;6.63;;;2.80;99.90;;;;;;5035029;28;20112;-72
2024/01/16 03:07:49;;;;;;;14.63;7.03;;;2.90;99.90;;;;;;5034147;28;20112;-71
2024/01/16 03:10:15;;;;;;;18.02;7.80;;;2.90;99.90;;;;;;5035303;28;20046;-71
2024/01/16 03:12:41;;;;;;;18.05;7.35;;;2.90;99.90;;;;;;5035227;28;20045;-72
2024/01/16 03:15:06;;;;;;;15.55;6.57;;;2.90;99.90;;;;;;5033845;28;20060;-73
2024/01/16 03:17:32;;;;;;;14.77;6.40;;;3.00;99.90;;;;;;5035051;28;20030;-71
2024/01/16 03:19:57;;;;;;;13.85;6.50;;;3.00;99.90;;;;;;5034998;28;20025;-72
2024/01/16 03:22:24;;;;;;;10.70;6.28;;;3.00;99.90;;;;;;5034698;28;20029;-72
2024/01/16 03:24:50;;;;;;;12.68;5.82;;;2.90;99.90;;;;;;5034696;28;20026;-72
2024/01/16 03:27:16;;;;;;;11.05;6.07;;;2.90;99.90;;;;;;5034902;28;20025;-72
2024/01/16 03:29:41;;;;;;;12.85;6.45;;;2.90;99.90;;;;;;5033791;28;20041;-71
2024/01/16 03:32:08;;;;;;;15.35;6.70;;;2.90;99.90;;;;;;5034224;28;20462;-72
2024/01/16 03:34:33;;;;;;;11.63;7.15;;;2.90;99.90;;;;;;5034324;28;20021;-72
2024/01/16 03:36:59;;;;;;;17.50;6.90;;;2.90;99.90;;;;;;5034835;28;20040;-73
2024/01/16 03:39:24;;;;;;;16.17;6.95;;;2.80;99.90;;;;;;5033543;28;20026;-73
2024/01/16 03:41:50;;;;;;;18.95;7.13;;;2.80;99.90;;;;;;5034877;28;20037;-71
2024/01/16 03:44:15;;;;;;;13.77;6.90;;;2.70;99.90;;;;;;5031736;28;20029;-72
2024/01/16 03:46:41;;;;;;;14.70;7.25;;;2.70;99.90;;;;;;5033459;28;20040;-72
2024/01/16 03:49:06;;;;;;;15.32;6.30;;;2.70;99.90;;;;;;5033373;28;20351;-70
2024/01/16 03:51:32;;;;;;;17.60;6.00;;;2.70;99.90;;;;;;5034157;28;20045;-71
2024/01/16 03:53:58;;;;;;;17.67;5.78;;;2.70;99.90;;;;;;5034167;28;20033;-73
2024/01/16 03:56:23;;;;;;;18.35;5.88;;;2.80;99.90;;;;;;5033533;28;20028;-71
2024/01/16 03:58:49;;;;;;;13.63;5.80;;;2.80;99.90;;;;;;5029282;28;20029;-71
2024/01/16 04:01:14;;;;;;;14.43;5.05;;;2.90;99.90;;;;;;5030909;28;20390;-73
2024/01/16 04:03:40;;;;;;;15.35;5.70;;;2.90;99.90;;;;;;5033672;28;20064;-71
2024/01/16 04:06:18;;;;;;;12.23;5.35;;;2.90;99.90;;;;;;5031640;28;20029;-73
2024/01/16 04:08:44;;;;;;;10.82;5.07;;;3.00;99.90;;;;;;5032061;28;20053;-71
2024/01/16 04:11:14;;;;;;;12.52;5.75;;;3.00;99.90;;;;;;5032701;28;20552;-71
2024/01/16 04:13:40;;;;;;;14.45;5.30;;;3.00;99.90;;;;;;5033569;28;20033;-71
2024/01/16 04:16:06;;;;;;;14.63;5.57;;;3.10;99.90;;;;;;5032843;28;20029;-72
2024/01/16 04:18:40;;;;;;;13.50;6.07;;;3.00;99.90;;;;;;5032690;28;20056;-72
2024/01/16 04:21:06;;;;;;;15.55;6.20;;;3.10;99.90;;;;;;5033103;28;20087;-72
2024/01/16 04:23:32;;;;;;;17.45;6.10;;;3.10;99.90;;;;;;5033039;28;20061;-72
2024/01/16 04:25:58;;;;;;;14.55;5.55;;;3.10;99.90;;;;;;5032235;28;20056;-73
2024/01/16 04:28:23;;;;;;;12.52;5.18;;;3.20;99.90;;;;;;5032324;28;20109;-71
2024/01/16 04:30:49;;;;;;;11.98;4.70;;;3.10;99.90;;;;;;5033507;28;20472;-73
2024/01/16 04:33:15;;;;;;;12.20;5.43;;;3.10;99.90;;;;;;5033479;28;20037;-72
2024/01/16 04:35:40;;;;;;;14.20;5.00;;;3.10;99.90;;;;;;5033152;28;20053;-72
2024/01/16 04:38:07;;;;;;;13.88;4.40;;;3.10;99.90;;;;;;5032358;28;20026;-73
2024/01/16 04:40:33;;;;;;;10.20;4.28;;;3.10;99.90;;;;;;5032786;28;20466;-72
2024/01/16 04:42:59;;;;;;;11.25;4.97;;;3.10;99.90;;;;;;5032913;28;20032;-72
2024/01/16 04:45:24;;;;;;;16.27;4.78;;;3.10;99.90;;;;;;5033215;28;20025;-71
2024/01/16 04:47:50;;;;;;;9.70;4.28;;;3.10;99.90;;;;;;5032918;28;20028;-72
2024/01/16 04:50:16;;;;;;;7.32;4.00;;;3.10;99.90;;;;;;5033018;28;20104;-72
2024/01/16 04:52:41;;;;;;;6.72;4.30;;;3.10;99.90;;;;;;5032081;28;20486;-72
2024/01/16 04:55:07;;;;;;;7.78;4.70;;;3.00;99.90;;;;;;5032913;28;20543;-71
2024/01/16 04:57:33;;;;;;;8.77;5.03;;;2.90;99.90;;;;;;5032593;28;20359;-72
2024/01/16 04:59:59;;;;;;;9.82;5.40;;;2.70;99.90;;;;;;5032988;28;20108;-73
2024/01/16 05:02:24;;;;;;;15.98;6.80;;;2.60;99.90;;;;;;5033027;28;20108;-72
2024/01/16 05:04:51;;;;;;;8.93;6.38;;;2.50;99.90;;;;;;5033521;28;20057;-72
2024/01/16 05:07:20;;;;;;;8.18;6.68;;;2.40;99.90;;;;;;5031794;28;20047;-73
2024/01/16 05:09:46;;;;;;;7.72;6.97;;;2.30;99.90;;;;;;5033001;28;20092;-72
2024/01/16 05:12:12;;;;;;;9.20;7.05;;;2.30;99.90;;;;;;5031994;28;20409;-72
2024/01/16 05:14:37;;;;;;;10.73;7.85;;;2.30;99.90;;;;;;5032880;28;20124;-73
2024/01/16 05:17:03;;;;;;;8.93;7.82;;;2.30;99.90;;;;;;5032655;28;20477;-73
2024/01/16 05:19:29;;;;;;;11.93;9.25;;;2.40;99.90;;;;;;5032866;28;20040;-72
2024/01/16 05:21:54;;;;;;;15.77;9.05;;;2.40;99.90;;;;;;5032526;28;20030;-73
2024/01/16 05:24:20;;;;;;;13.40;8.63;;;2.40;99.90;;;;;;5033122;28;20025;-72
2024/01/16 05:26:45;;;;;;;11.35;8.90;;;2.40;99.90;;;;;;5032947;28;20030;-73
2024/01/16 05:29:11;;;;;;;12.40;9.45;;;2.40;99.90;;;;;;5032779;28;20460;-71
2024/01/16 05:31:43;;;;;;;13.15;9.68;;;2.40;99.90;;;;;;5032089;28;20033;-71
2024/01/16 05:34:09;;;;;;;12.40;9.90;;;2.40;99.90;;;;;;5032557;28;20396;-72
2024/01/16 05:36:35;;;;;;;14.75;9.48;;;2.40;99.90;;;;;;5032748;28;20025;-72
2024/01/16 05:39:01;;;;;;;15.65;10.07;;;2.40;99.90;;;;;;5032353;28;20135;-72
2024/01/16 05:41:27;;;;;;;18.05;11.00;;;2.40;99.90;;;;;;5032444;28;20131;-72
2024/01/16 05:43:52;;;;;;;14.93;10.98;;;2.40;99.90;;;;;;5032612;28;20112;-71
2024/01/16 05:46:18;;;;;;;15.57;11.50;;;2.40;99.90;;;;;;5032771;28;20036;-72
2024/01/16 05:48:44;;;;;;;14.95;11.25;;;2.50;99.90;;;;;;5032257;28;20492;-71
2024/01/16 05:51:10;;;;;;;17.40;11.27;;;2.50;99.90;;;;;;5032621;28;20033;-71
2024/01/16 05:53:35;;;;;;;14.70;11.38;;;2.50;99.90;;;;;;5032460;28;20424;-72
2024/01/16 05:56:01;;;;;;;17.67;11.00;;;2.50;99.90;;;;;;5032478;28;20112;-71
2024/01/16 05:58:26;;;;;;;24.00;14.20;;;2.40;99.90;;;;;;5032319;28;20021;-71
2024/01/16 06:00:52;;;;;;;17.88;10.00;;;2.40;99.90;;;;;;5032287;28;20069;-72
2024/01/16 06:03:17;;;;;;;14.98;11.13;;;2.50;99.90;;;;;;5031270;28;20025;-72
2024/01/16 06:05:43;;;;;;;16.60;11.32;;;2.50;99.90;;;;;;5032217;28;20482;-72
2024/01/16 06:08:09;;;;;;;16.90;10.65;;;2.50;99.90;;;;;;5032247;28;20554;-72
2024/01/16 06:10:34;;;;;;;16.17;10.85;;;2.50;99.90;;;;;;5031345;28;20099;-72
2024/01/16 06:13:00;;;;;;;17.30;11.50;;;2.40;99.90;;;;;;5030593;28;20041;-72
2024/01/16 06:15:25;;;;;;;22.33;11.43;;;2.40;99.90;;;;;;5031224;28;20109;-73
2024/01/16 06:17:51;;;;;;;14.98;9.70;;;2.40;99.90;;;;;;5031773;28;20040;-73
2024/01/16 06:20:17;;;;;;;20.58;12.48;;;2.40;99.90;;;;;;5032584;28;20030;-72
2024/01/16 06:22:42;;;;;;;15.77;8.43;;;2.40;99.90;;;;;;5031612;28;20021;-72
2024/01/16 06:25:08;;;;;;;16.77;8.25;;;2.30;99.90;;;;;;5031476;28;20037;-72
2024/01/16 06:27:33;;;;;;;12.23;7.57;;;2.20;99.90;;;;;;5032245;28;20075;-74
2024/01/16 06:29:59;;;;;;;10.45;8.95;;;2.20;99.90;;;;;;5032157;28;20025;-72
2024/01/16 06:32:24;;;;;;;13.50;8.98;;;2.10;99.90;;;;;;5030916;28;20175;-74
2024/01/16 06:34:50;;;;;;;17.02;9.75;;;2.10;99.90;;;;;;5032416;28;20021;-73
2024/01/16 06:37:16;;;;;;;17.17;10.77;;;2.10;99.90;;;;;;5031925;28;20048;-73
2024/01/16 06:39:41;;;;;;;14.82;10.30;;;2.10;99.90;;;;;;5032249;28;20142;-71
2024/01/16 06:42:07;;;;;;;15.63;9.73;;;2.10;99.90;;;;;;5033639;28;20029;-71
2024/01/16 06:44:32;;;;;;;16.60;10.32;;;2.20;99.90;;;;;;5035619;28;20025;-71
2024/01/16 06:46:58;;;;;;;19.60;9.90;;;2.20;99.90;;;;;;5035258;28;20033;-73
2024/01/16 06:49:24;;;;;;;19.75;9.32;;;2.30;99.90;;;;;;5035606;28;20029;-72
2024/01/16 06:51:49;;;;;;;18.10;9.70;;;2.40;99.90;;;;;;5035155;28;20065;-73
2024/01/16 06:54:15;;;;;;;18.65;8.80;;;2.40;99.90;;;;;;5034762;28;20417;-72
2024/01/16 06:56:40;;;;;;;13.30;8.00;;;2.40;99.90;;;;;;5035394;28;20052;-74
2024/01/16 06:59:06;;;;;;;16.27;8.55;;;2.40;99.90;;;;;;5035520;28;20025;-73
2024/01/16 07:01:32;;;;;;;13.68;8.10;;;2.50;99.90;;;;;;5034919;28;20025;-72
2024/01/16 07:03:57;;;;;;;16.80;9.23;;;2.50;99.90;;;;;;5035639;28;20026;-72
2024/01/16 07:06:23;;;;;;;18.33;12.02;;;2.50;99.90;;;;;;5035247;28;20477;-73
2024/01/16 07:08:48;;;;;;;15.70;10.52;;;2.50;99.90;;;;;;5034719;28;20204;-73
2024/01/16 07:11:14;;;;;;;12.65;9.80;;;2.60;99.90;;;;;;5034703;28;20108;-73
2024/01/16 07:13:40;;;;;;;13.25;10.63;;;2.60;99.90;;;;;;5034958;28;20104;-72
2024/01/16 07:16:10;;;;;;;16.00;10.68;;;2.70;99.90;;;;;;5035179;28;20101;-73
2024/01/16 07:18:37;;;;;;;13.70;10.40;;;2.70;99.90;;;;;;5035077;28;20075;-72
2024/01/16 07:21:03;;;;;;;16.55;10.77;;;2.70;99.90;;;;;;5035151;28;20037;-73
2024/01/16 07:23:28;;;;;;;17.73;10.60;;;2.80;99.90;;;;;;5034808;28;20073;-72
2024/01/16 07:25:54;;;;;;;17.70;11.77;;;2.80;99.90;;;;;;5034961;28;20053;-73
2024/01/16 07:28:21;;;;;;;14.30;11.20;;;2.80;99.90;;;;;;5035124;28;20520;-72
2024/01/16 07:30:47;;;;;;;15.20;11.07;;;2.80;99.90;;;;;;5035096;28;20022;-72
2024/01/16 07:33:13;;;;;;;17.08;10.95;;;2.80;99.90;;;;;;5034933;28;20046;-73
2024/01/16 07:35:41;;;;;;;15.13;9.10;;;2.80;99.90;;;;;;5034551;28;20033;-72
2024/01/16 07:38:06;;;;;;;12.63;8.40;;;2.80;99.90;;;;;;5034783;28;20041;-72
2024/01/16 07:40:32;;;;;;;12.07;7.70;;;2.80;99.90;;;;;;5034763;28;20030;-72
2024/01/16 07:42:57;;;;;;;15.57;5.93;;;2.80;99.90;;;;;;5034966;28;20034;-73
2024/01/16 07:45:24;;;;;;;12.93;4.60;;;2.80;99.90;;;;;;5034612;28;20045;-72
2024/01/16 07:47:49;;;;;;;11.60;3.90;;;2.80;99.90;;;;;;5034579;28;20104;-71
2024/01/16 07:50:15;;;;;;;8.05;3.70;;;2.80;99.90;;;;;;5034365;28;20196;-73
2024/01/16 07:52:40;;;;;;;10.05;3.20;;;2.80;99.90;;;;;;5033990;28;20041;-71
2024/01/16 07:55:07;;;;;;;9.93;3.63;;;2.80;99.90;;;;;;5028435;28;20022;-72
2024/01/16 07:57:32;;;;;;;16.70;4.63;;;2.80;99.90;;;;;;5034274;28;20034;-72
2024/01/16 07:59:58;;;;;;;11.52;3.17;;;2.90;99.90;;;;;;5034480;28;20026;-73
2024/01/16 08:02:31;;;;;;;8.82;3.30;;;2.80;99.90;;;;;;5034120;28;20030;-74
2024/01/16 08:04:57;;;;;;;12.93;3.30;;;2.90;99.90;;;;;;5033852;28;20022;-72
2024/01/16 08:07:22;;;;;;;9.23;2.90;;;2.90;99.90;;;;;;5034546;28;20052;-74
2024/01/16 08:09:48;;;;;;;8.98;2.90;;;2.90;99.90;;;;;;5033634;28;20124;-73
2024/01/16 08:12:13;;;;;;;11.45;2.60;;;3.00;99.90;;;;;;5033713;28;20025;-72
2024/01/16 08:14:39;;;;;;;10.95;3.10;;;3.00;99.90;;;;;;5034299;28;20032;-73
2024/01/16 08:17:05;;;;;;;8.85;2.65;;;3.10;99.90;;;;;;5033834;28;20120;-71
2024/01/16 08:19:30;;;;;;;13.68;2.90;;;3.10;99.90;;;;;;5033691;28;20034;-71
2024/01/16 08:21:56;;;;;;;7.05;2.30;;;3.10;99.90;;;;;;5033827;28;20025;-72
2024/01/16 08:24:22;;;;;;;7.53;2.40;;;3.10;99.90;;;;;;5033884;28;20033;-72
2024/01/16 08:26:48;;;;;;;7.88;2.00;;;3.10;99.90;;;;;;5031565;28;20022;-74
2024/01/16 08:29:14;;;;;;;10.02;2.55;;;3.20;99.90;;;;;;5032382;28;20029;-73
2024/01/16 08:31:40;;;;;;;7.53;2.08;;;3.20;99.90;;;;;;5033717;28;20041;-73
2024/01/16 08:34:05;;;;;;;4.88;1.90;;;3.30;99.90;;;;;;5033612;28;20032;-72
2024/01/16 08:36:31;;;;;;;10.82;2.25;;;3.30;99.90;;;;;;5033456;28;20025;-71
2024/01/16 08:38:56;;;;;;;6.07;1.77;;;3.40;99.90;;;;;;5033368;28;20029;-74
2024/01/16 08:41:22;;;;;;;14.20;2.45;;;3.40;99.90;;;;;;5033116;28;20034;-72
2024/01/16 08:43:48;;;;;;;11.80;2.00;;;3.50;99.90;;;;;;5032147;28;20108;-74
2024/01/16 08:46:15;;;;;;;8.02;2.10;;;3.50;99.90;;;;;;5033258;28;20040;-72
2024/01/16 08:48:41;;;;;;;6.25;1.80;;;3.60;99.90;;;;;;5033292;28;20127;-73
2024/01/16 08:51:11;;;;;;;8.60;2.20;;;3.70;99.90;;;;;;5032351;28;20032;-72
2024/01/16 08:53:37;;;;;;;6.95;1.90;;;3.70;99.90;;;;;;5030368;28;20029;-73
2024/01/16 08:56:06;;;;;;;10.88;1.98;;;3.70;99.90;;;;;;5033149;28;20462;-72
2024/01/16 08:58:35;;;;;;;10.40;2.05;;;3.80;99.90;;;;;;5032823;28;20116;-72
2024/01/16 09:01:07;;;;;;;7.15;2.00;;;3.80;99.90;;;;;;5033260;28;20091;-73
2024/01/16 09:03:33;;;;;;;7.55;1.48;;;3.90;99.90;;;;;;5033248;28;20053;-72
2024/01/16 09:05:59;;;;;;;7.75;1.55;;;3.90;99.90;;;;;;5031796;28;20541;-71
2024/01/16 09:08:26;;;;;;;11.63;1.85;;;3.90;99.90;;;;;;5033123;28;20036;-72
2024/01/16 09:10:56;;;;;;;5.15;1.42;;;4.00;99.90;;;;;;5031880;28;20107;-71
2024/01/16 09:13:23;;;;;;;5.85;1.50;;;4.10;99.90;;;;;;5031866;28;20064;-72
2024/01/16 09:15:49;;;;;;;10.88;2.22;;;4.10;99.90;;;;;;5032717;28;20068;-72
2024/01/16 09:18:15;;;;;;;6.05;1.38;;;4.10;99.90;;;;;;5032520;28;20017;-72
2024/01/16 09:20:42;;;;;;;7.30;1.52;;;4.20;99.90;;;;;;5032674;28;20114;-72
2024/01/16 09:23:07;;;;;;;6.85;1.50;;;4.30;99.90;;;;;;5032355;28;20064;-72
2024/01/16 09:25:34;;;;;;;8.60;1.73;;;4.30;99.90;;;;;;5032326;28;20060;-71
2024/01/16 09:28:00;;;;;;;8.95;1.75;;;4.40;99.90;;;;;;5032452;28;20028;-71
2024/01/16 09:30:26;;;;;;;8.45;2.00;;;4.40;99.90;;;;;;5032848;28;20789;-71
2024/01/16 09:32:51;;;;;;;6.18;2.08;;;4.40;99.90;;;;;;5033069;28;20442;-71
2024/01/16 09:35:17;;;;;;;8.65;1.65;;;4.50;99.90;;;;;;5032977;28;20389;-71
2024/01/16 09:37:43;;;;;;;9.10;1.70;;;4.50;99.90;;;;;;5032754;28;20036;-71
2024/01/16 09:40:09;;;;;;;6.97;1.58;;;4.60;99.90;;;;;;5032537;28;20044;-72
2024/01/16 09:42:34;;;;;;;7.15;1.50;;;4.60;99.90;;;;;;5032568;28;20488;-73
2024/01/16 09:45:02;;;;;;;6.45;1.80;;;4.60;99.90;;;;;;5032176;28;20026;-72
2024/01/16 09:47:32;;;;;;;9.10;1.80;;;4.70;99.90;;;;;;5032645;28;20025;-71
2024/01/16 09:50:00;;;;;;;11.88;2.10;;;4.70;99.90;;;;;;5032115;28;20044;-72
2024/01/16 09:52:26;;;;;;;13.20;2.40;;;4.80;99.90;;;;;;5032270;28;20045;-72
2024/01/16 09:54:52;;;;;;;10.63;2.20;;;4.90;99.90;;;;;;5034270;28;20060;-71
2024/01/16 09:57:22;;;;;;;12.65;2.33;;;5.00;99.90;;;;;;5047757;28;20033;-72
2024/01/16 09:59:48;;;;;;;12.93;2.28;;;5.20;99.90;;;;;;5035717;28;20033;-72
2024/01/16 10:02:14;;;;;;;9.10;1.80;;;5.30;99.90;;;;;;5046646;28;20018;-72
2024/01/16 10:04:41;;;;;;;9.25;2.42;;;5.40;99.90;;;;;;5041773;28;20064;-73
2024/01/16 10:07:09;;;;;;;13.18;2.28;;;5.50;99.90;;;;;;5039058;28;20045;-73
2024/01/16 10:09:35;;;;;;;10.98;2.08;;;5.60;99.90;;;;;;5048367;28;20111;-72
2024/01/16 10:12:01;;;;;;;14.70;2.25;;;5.70;99.90;;;;;;5035223;28;20104;-72
2024/01/16 10:14:27;;;;;;;9.55;2.15;;;5.90;99.90;;;;;;5044618;28;20029;-72
2024/01/16 10:16:58;;;;;;;13.57;2.22;;;5.90;99.90;;;;;;5044100;28;20039;-71
2024/01/16 10:19:23;;;;;;;8.93;1.92;;;6.00;99.90;;;;;;5040608;28;20025;-72
2024/01/16 10:21:50;;;;;;;9.35;2.28;;;6.00;99.90;;;;;;5052218;28;20033;-72
2024/01/16 10:24:16;;;;;;;8.43;1.90;;;6.00;99.90;;;;;;5041966;28;20516;-72
2024/01/16 10:26:41;;;;;;;6.93;1.92;;;6.10;99.90;;;;;;5046449;28;20120;-72
2024/01/16 10:29:09;;;;;;;7.40;1.75;;;6.40;99.90;;;;;;5048704;28;20116;-72
2024/01/16 10:31:34;;;;;;;8.07;1.85;;;7.00;99.90;;;;;;5039077;28;20527;-73
2024/01/16 10:34:00;;;;;;;11.75;2.65;;;7.70;99.90;;;;;;5051154;28;20041;-73
2024/01/16 10:36:25;;;;;;;9.30;1.80;;;8.50;99.90;;;;;;5042601;28;20031;-71
2024/01/16 10:38:57;;;;;;;2.67;1.30;;;9.10;99.90;;;;;;5045060;28;20021;-72
2024/01/16 10:41:26;;;;;;;7.22;1.80;;;9.50;99.90;;;;;;5050634;28;20044;-72
2024/01/16 10:44:06;;;;;;;10.70;2.15;;;9.50;99.90;;;;;;5038902;28;20112;-71
2024/01/16 10:46:32;;;;;;;6.88;1.40;;;9.20;99.90;;;;;;5047413;28;20042;-72
2024/01/16 10:49:02;;;;;;;13.60;2.58;;;8.90;99.90;;;;;;5033454;28;20026;-72
2024/01/16 10:51:29;;;;;;;9.35;2.30;;;8.90;99.90;;;;;;5034670;28;20079;-72
2024/01/16 10:53:59;;;;;;;10.45;2.20;;;9.10;99.90;;;;;;5051653;28;20026;-72
2024/01/16 10:56:27;;;;;;;6.53;1.33;;;9.20;99.90;;;;;;5042341;28;20021;-73
2024/01/16 10:59:12;;;;;;;7.57;1.88;;;9.10;99.90;;;;;;5044723;28;20116;-72
2024/01/16 11:01:40;;;;;;;8.98;1.73;;;9.00;99.90;;;;;;5051684;28;20477;-72
2024/01/16 11:04:06;;;;;;;8.32;2.22;;;8.70;99.90;;;;;;5039240;28;20032;-72
2024/01/16 11:06:33;;;;;;;10.65;2.28;;;8.30;99.90;;;;;;5047033;28;20025;-72
2024/01/16 11:08:59;;;;;;;10.38;2.13;;;8.40;99.90;;;;;;5046359;28;20053;-74
2024/01/16 11:11:28;;;;;;;6.57;1.48;;;8.20;99.90;;;;;;5039146;28;20029;-72
2024/01/16 11:13:54;;;;;;;11.73;2.17;;;7.90;99.90;;;;;;5051392;28;20267;-72
2024/01/16 11:16:21;;;;;;;7.25;1.80;;;8.00;99.90;;;;;;5041155;28;20031;-73
2024/01/16 11:18:47;;;;;;;11.23;2.42;;;8.60;99.90;;;;;;5044481;28;20035;-72
2024/01/16 11:21:15;;;;;;;13.43;2.72;;;9.20;99.90;;;;;;5034210;28;20393;-73
2024/01/16 11:23:41;;;;;;;12.30;2.50;;;9.20;99.90;;;;;;5037830;28;20124;-73
2024/01/16 11:26:28;;;;;;;5.75;1.80;;;8.90;99.90;;;;;;5049753;28;20025;-72
2024/01/16 11:28:59;;;;;;;9.38;2.08;;;8.50;99.90;;;;;;5044766;28;20128;-72
2024/01/16 11:31:35;;;;;;;49.22;29.15;;;8.50;99.90;;;;;;5034382;28;20076;-74
2024/01/16 11:34:02;;;;;;;39.55;22.35;;;8.40;99.90;;;;;;5022340;28;20036;-73
2024/01/16 11:36:55;;;;;;;35.45;17.45;;;8.30;99.90;;;;;;5047085;28;20064;-73
2024/01/16 11:39:24;;;;;;;11.45;4.20;;;8.00;99.90;;;;;;5049300;28;20092;-73
2024/01/16 11:41:55;;;;;;;9.98;2.53;;;7.70;99.90;;;;;;5037723;28;20393;-73
2024/01/16 11:44:42;;;;;;;9.57;2.42;;;7.70;99.90;;;;;;5047964;28;20079;-73
2024/01/16 11:47:08;;;;;;;8.63;1.98;;;7.60;99.90;;;;;;5046581;28;20029;-72
2024/01/16 11:49:35;;;;;;;8.27;2.60;;;7.50;99.90;;;;;;5054066;28;20469;-72
2024/01/16 11:52:01;;;;;;;11.45;2.67;;;7.40;99.90;;;;;;5037721;28;20033;-73
2024/01/16 11:54:26;;;;;;;39.00;21.83;;;7.60;99.90;;;;;;5046646;28;20056;-73
2024/01/16 11:57:14;;;;;;;16.90;4.60;;;7.50;99.90;;;;;;5045006;28;20055;-73
2024/01/16 12:00:02;;;;;;;8.95;2.15;;;7.50;99.90;;;;;;5037671;28;20386;-72
2024/01/16 12:02:48;;;;;;;8.73;2.50;;;7.40;99.90;;;;;;5046185;28;20041;-72
2024/01/16 12:05:14;;;;;;;7.10;1.95;;;7.60;99.90;;;;;;5047892;28;20033;-71
2024/01/16 12:07:49;;;;;;;14.45;3.42;;;8.00;99.90;;;;;;5037338;28;20037;-73
2024/01/16 12:10:17;;;;;;;7.45;2.00;;;8.60;99.90;;;;;;5048229;28;20045;-72
2024/01/16 12:12:43;;;;;;;12.80;3.95;;;8.90;99.90;;;;;;5043259;28;20059;-73
2024/01/16 12:15:17;;;;;;;8.90;2.47;;;9.20;99.90;;;;;;5040493;28;20048;-72
2024/01/16 12:17:59;;;;;;;7.90;2.25;;;9.60;99.90;;;;;;5050308;28;20021;-72
2024/01/16 12:20:31;;;;;;;6.10;1.60;;;9.60;99.90;;;;;;5041091;28;20021;-71
2024/01/16 12:22:58;;;;;;;7.97;1.90;;;9.70;99.90;;;;;;5042439;28;20370;-71
2024/01/16 12:25:25;;;;;;;6.45;1.52;;;9.90;99.90;;;;;;5032222;28;20119;-71
2024/01/16 12:28:01;;;;;;;11.45;1.77;;;10.10;99.80;;;;;;5035479;28;20025;-72
2024/01/16 12:30:34;;;;;;;7.57;1.83;;;9.90;99.90;;;;;;5046247;28;20037;-72
2024/01/16 12:33:15;;;;;;;9.18;1.70;;;9.90;99.90;;;;;;5045335;28;20603;-72
2024/01/16 12:35:47;;;;;;;8.98;2.10;;;9.70;99.90;;;;;;5036380;28;20036;-72
2024/01/16 12:38:14;;;;;;;7.38;1.63;;;9.40;99.90;;;;;;5047966;28;20029;-72
2024/01/16 12:40:43;;;;;;;5.95;1.55;;;9.20;99.90;;;;;;5042127;28;20047;-72
2024/01/16 12:43:09;;;;;;;3.53;1.38;;;8.90;99.90;;;;;;5039469;28;20107;-72
2024/01/16 12:45:35;;;;;;;5.50;1.50;;;8.60;99.90;;;;;;5048494;28;20056;-72